createdAt,value
2017-12-04T00:00:51.041Z,36.90
2017-12-04T00:03:19.368Z,36.90
2017-12-04T00:05:47.716Z,37.00
2017-12-04T00:08:16.853Z,36.90
2017-12-04T00:10:45.116Z,36.90
2017-12-04T00:13:14.794Z,36.90
2017-12-04T00:15:43.274Z,36.90
2017-12-04T00:18:12.383Z,36.90
2017-12-04T00:20:41.467Z,36.90
2017-12-04T00:23:10.342Z,36.90
2017-12-04T00:25:39.412Z,36.40
2017-12-04T00:28:07.790Z,36.90
2017-12-04T00:30:36.055Z,36.90
2017-12-04T00:33:08.164Z,36.90
2017-12-04T00:35:37.265Z,36.90
2017-12-04T00:38:06.367Z,36.80
2017-12-04T00:40:34.919Z,36.80
2017-12-04T00:43:03.318Z,36.80
2017-12-04T00:45:32.594Z,36.90
2017-12-04T00:48:00.895Z,36.90
2017-12-04T00:50:29.198Z,36.90
2017-12-04T00:52:57.561Z,36.80
2017-12-04T00:55:25.907Z,36.80
2017-12-04T00:57:55.159Z,36.80
2017-12-04T01:00:23.547Z,36.80
2017-12-04T01:02:52.384Z,36.80
2017-12-04T01:05:22.335Z,36.70
2017-12-04T01:07:50.737Z,36.70
2017-12-04T01:10:19.112Z,36.60
2017-12-04T01:12:48.366Z,36.60
2017-12-04T01:15:16.705Z,36.60
2017-12-04T01:17:45.931Z,36.60
2017-12-04T01:20:14.306Z,36.50
2017-12-04T01:22:43.399Z,36.50
2017-12-04T01:25:12.514Z,36.50
2017-12-04T01:27:40.818Z,36.50
2017-12-04T01:30:09.114Z,36.50
2017-12-04T01:32:37.621Z,36.50
2017-12-04T01:35:06.680Z,36.40
2017-12-04T01:37:35.935Z,37.00
2017-12-04T01:40:04.330Z,36.40
2017-12-04T01:42:32.643Z,36.50
2017-12-04T01:45:00.975Z,36.50
2017-12-04T01:47:29.932Z,36.50
2017-12-04T01:49:58.971Z,36.40
2017-12-04T01:52:27.276Z,36.40
2017-12-04T01:54:57.330Z,36.40
2017-12-04T01:57:25.670Z,36.40
2017-12-04T01:59:53.956Z,36.40
2017-12-04T02:02:23.485Z,36.40
2017-12-04T02:04:52.838Z,36.40
2017-12-04T02:07:21.172Z,37.00
2017-12-04T02:09:49.455Z,36.50
2017-12-04T02:12:17.828Z,36.50
2017-12-04T02:14:46.161Z,36.40
2017-12-04T02:17:14.488Z,36.40
2017-12-04T02:19:42.748Z,36.40
2017-12-04T02:22:11.018Z,36.40
2017-12-04T02:24:40.103Z,36.40
2017-12-04T02:27:09.182Z,36.40
2017-12-04T02:29:37.582Z,36.40
2017-12-04T02:32:06.621Z,36.40
2017-12-04T02:34:34.887Z,36.30
2017-12-04T02:37:03.163Z,36.30
2017-12-04T02:39:31.455Z,36.30
2017-12-04T02:41:59.748Z,36.30
2017-12-04T02:44:28.091Z,36.30
2017-12-04T02:46:56.363Z,36.30
2017-12-04T02:49:24.619Z,36.30
2017-12-04T02:51:52.887Z,36.30
2017-12-04T02:54:21.190Z,36.30
2017-12-04T02:56:49.527Z,36.30
2017-12-04T02:59:19.510Z,36.30
2017-12-04T03:01:47.894Z,36.30
2017-12-04T03:04:16.254Z,36.30
2017-12-04T03:06:44.538Z,36.30
2017-12-04T03:09:12.829Z,36.20
2017-12-04T03:11:41.108Z,36.20
2017-12-04T03:14:10.170Z,36.30
2017-12-04T03:16:38.459Z,36.30
2017-12-04T03:19:06.883Z,36.30
2017-12-04T03:21:35.167Z,36.30
2017-12-04T03:24:03.420Z,36.30
2017-12-04T03:26:32.549Z,36.40
2017-12-04T03:29:00.802Z,36.30
2017-12-04T03:31:29.140Z,36.30
2017-12-04T03:33:57.387Z,36.30
2017-12-04T03:36:25.644Z,36.30
2017-12-04T03:38:53.920Z,36.30
2017-12-04T03:41:22.263Z,36.30
2017-12-04T03:43:51.514Z,36.30
2017-12-04T03:46:19.924Z,36.30
2017-12-04T03:48:48.185Z,36.30
2017-12-04T03:51:16.456Z,36.30
2017-12-04T03:53:44.775Z,36.30
2017-12-04T03:56:13.882Z,36.30
2017-12-04T03:58:42.183Z,36.30
2017-12-04T04:01:10.452Z,36.20
2017-12-04T04:03:38.728Z,36.30
2017-12-04T04:06:07.014Z,36.30
2017-12-04T04:08:35.350Z,36.20
2017-12-04T04:11:04.383Z,36.20
2017-12-04T04:13:32.662Z,36.20
2017-12-04T04:16:00.911Z,36.20
2017-12-04T04:18:29.322Z,36.20
2017-12-04T04:20:57.671Z,36.20
2017-12-04T04:23:26.135Z,36.20
2017-12-04T04:25:55.206Z,36.10
2017-12-04T04:28:24.282Z,36.20
2017-12-04T04:30:52.569Z,36.10
2017-12-04T04:33:20.841Z,36.10
2017-12-04T04:35:49.106Z,36.10
2017-12-04T04:38:17.379Z,36.10
2017-12-04T04:40:45.625Z,36.70
2017-12-04T04:43:14.048Z,36.10
2017-12-04T04:45:42.458Z,36.10
2017-12-04T04:48:10.778Z,36.10
2017-12-04T04:50:39.823Z,36.20
2017-12-04T04:53:08.090Z,36.10
2017-12-04T04:55:37.107Z,36.20
2017-12-04T04:58:05.366Z,36.20
2017-12-04T05:00:34.388Z,36.20
2017-12-04T05:03:02.699Z,36.20
2017-12-04T05:05:30.949Z,36.10
2017-12-04T05:07:59.520Z,36.10
2017-12-04T05:10:27.785Z,36.10
2017-12-04T05:12:56.127Z,36.10
2017-12-04T05:15:24.409Z,36.20
2017-12-04T05:17:54.457Z,36.20
2017-12-04T05:20:22.785Z,36.10
2017-12-04T05:22:51.019Z,36.10
2017-12-04T05:25:19.512Z,36.10
2017-12-04T05:27:47.775Z,36.10
2017-12-04T05:30:16.031Z,36.10
2017-12-04T05:32:44.319Z,36.10
2017-12-04T05:35:12.577Z,36.00
2017-12-04T05:37:40.818Z,36.10
2017-12-04T05:40:09.238Z,36.10
2017-12-04T05:42:37.667Z,36.10
2017-12-04T05:45:05.953Z,36.20
2017-12-04T05:47:34.216Z,36.20
2017-12-04T05:50:02.521Z,35.80
2017-12-04T05:52:31.524Z,36.20
2017-12-04T05:54:59.823Z,36.20
2017-12-04T05:57:28.097Z,36.10
2017-12-04T05:59:56.358Z,36.10
2017-12-04T06:02:24.614Z,36.20
2017-12-04T06:04:53.619Z,36.20
2017-12-04T06:07:21.872Z,36.20
2017-12-04T06:09:50.899Z,36.10
2017-12-04T06:12:19.138Z,36.10
2017-12-04T06:14:47.482Z,36.10
2017-12-04T06:17:15.866Z,36.10
2017-12-04T06:19:44.246Z,36.00
2017-12-04T06:22:12.553Z,36.00
2017-12-04T06:24:41.695Z,36.00
2017-12-04T06:27:10.027Z,36.00
2017-12-04T06:29:39.078Z,36.10
2017-12-04T06:32:07.357Z,36.10
2017-12-04T06:34:35.608Z,36.00
2017-12-04T06:37:03.880Z,36.10
2017-12-04T06:39:32.127Z,36.20
2017-12-04T06:42:01.223Z,36.00
2017-12-04T06:44:30.251Z,35.80
2017-12-04T06:46:58.574Z,35.80
2017-12-04T06:49:27.906Z,35.60
2017-12-04T06:51:56.199Z,35.60
2017-12-04T06:54:24.495Z,35.50
2017-12-04T06:56:52.828Z,35.30
2017-12-04T06:59:21.147Z,35.20
2017-12-04T07:01:49.543Z,35.10
2017-12-04T07:04:17.807Z,35.20
2017-12-04T07:06:46.055Z,35.10
2017-12-04T07:09:14.358Z,35.00
2017-12-04T07:11:42.647Z,35.00
2017-12-04T07:14:10.991Z,34.90
2017-12-04T07:16:40.276Z,34.80
2017-12-04T07:19:08.667Z,34.80
2017-12-04T07:21:36.934Z,34.70
2017-12-04T07:24:06.128Z,34.70
2017-12-04T07:26:34.441Z,34.70
2017-12-04T07:29:02.704Z,34.70
2017-12-04T07:31:30.983Z,34.70
2017-12-04T07:33:59.279Z,34.70
2017-12-04T07:36:27.539Z,34.60
2017-12-04T07:38:55.793Z,34.60
2017-12-04T07:41:24.063Z,34.60
2017-12-04T07:43:52.327Z,34.60
2017-12-04T07:46:20.594Z,34.60
2017-12-04T07:48:48.870Z,34.60
2017-12-04T07:51:17.183Z,34.60
2017-12-04T07:53:45.453Z,34.50
2017-12-04T07:56:13.717Z,34.50
2017-12-04T07:58:42.250Z,34.40
2017-12-04T08:01:11.251Z,34.50
2017-12-04T08:03:40.348Z,34.30
2017-12-04T08:06:09.405Z,34.40
2017-12-04T08:08:37.675Z,34.30
2017-12-04T08:11:05.925Z,34.30
2017-12-04T08:13:34.266Z,34.30
2017-12-04T08:16:03.302Z,34.40
2017-12-04T08:18:31.555Z,34.30
2017-12-04T08:20:59.820Z,34.30
2017-12-04T08:23:28.330Z,34.30
2017-12-04T08:25:56.635Z,34.30
2017-12-04T08:28:24.892Z,34.20
2017-12-04T08:30:53.930Z,34.20
2017-12-04T08:33:23.028Z,34.10
2017-12-04T08:35:52.063Z,34.10
2017-12-04T08:38:20.431Z,34.10
2017-12-04T08:40:48.686Z,34.10
2017-12-04T08:43:16.993Z,34.10
2017-12-04T08:45:46.051Z,34.10
2017-12-04T08:48:14.354Z,34.10
2017-12-04T08:50:42.608Z,34.00
2017-12-04T08:53:10.863Z,34.00
2017-12-04T08:55:39.892Z,34.00
2017-12-04T08:58:08.211Z,34.00
2017-12-04T09:00:36.506Z,34.00
2017-12-04T09:03:06.781Z,34.10
2017-12-04T09:05:35.080Z,34.00
2017-12-04T09:08:03.376Z,34.00
2017-12-04T09:10:32.400Z,34.00
2017-12-04T09:13:00.655Z,34.00
2017-12-04T09:15:30.007Z,33.80
2017-12-04T09:17:58.287Z,33.80
2017-12-04T09:20:26.660Z,33.80
2017-12-04T09:22:54.964Z,33.70
2017-12-04T09:25:23.227Z,33.60
2017-12-04T09:27:51.503Z,34.20
2017-12-04T09:30:19.905Z,33.60
2017-12-04T09:32:48.924Z,33.70
2017-12-04T09:35:17.174Z,33.70
2017-12-04T09:37:46.220Z,33.80
2017-12-04T09:40:14.515Z,33.70
2017-12-04T09:42:42.814Z,33.80
2017-12-04T09:45:11.183Z,33.70
2017-12-04T09:47:39.431Z,33.70
2017-12-04T09:50:07.708Z,33.60
2017-12-04T09:52:35.996Z,33.60
2017-12-04T09:55:04.382Z,33.60
2017-12-04T09:57:32.698Z,33.60
2017-12-04T10:00:00.948Z,33.60
2017-12-04T10:02:29.993Z,33.50
2017-12-04T10:04:58.545Z,33.50
2017-12-04T10:07:26.850Z,33.50
2017-12-04T10:09:55.153Z,33.50
2017-12-04T10:12:23.424Z,33.50
2017-12-04T10:14:51.764Z,33.50
2017-12-04T10:17:20.184Z,33.50
2017-12-04T10:19:48.466Z,33.50
2017-12-04T10:22:16.763Z,33.60
2017-12-04T10:24:45.801Z,33.60
2017-12-04T10:27:15.008Z,33.60
2017-12-04T10:29:43.255Z,33.60
2017-12-04T10:32:11.537Z,33.60
2017-12-04T10:34:40.511Z,33.50
2017-12-04T10:37:08.907Z,33.40
2017-12-04T10:39:37.222Z,33.40
2017-12-04T10:42:05.547Z,33.40
2017-12-04T10:44:33.892Z,33.40
2017-12-04T10:47:02.236Z,33.30
2017-12-04T10:49:30.984Z,33.40
2017-12-04T10:51:59.347Z,33.40
2017-12-04T10:54:27.726Z,33.40
2017-12-04T10:56:56.812Z,33.40
2017-12-04T10:59:25.878Z,33.40
2017-12-04T11:01:54.164Z,33.30
2017-12-04T11:04:22.460Z,33.30
2017-12-04T11:06:51.572Z,33.20
2017-12-04T11:09:19.955Z,33.30
2017-12-04T11:11:49.161Z,33.30
2017-12-04T11:14:18.739Z,33.30
2017-12-04T11:16:47.042Z,33.20
2017-12-04T11:19:15.339Z,33.30
2017-12-04T11:21:43.611Z,33.30
2017-12-04T11:24:11.859Z,33.30
2017-12-04T11:26:40.210Z,33.20
2017-12-04T11:29:09.212Z,33.20
2017-12-04T11:31:38.262Z,33.20
2017-12-04T11:34:06.530Z,33.20
2017-12-04T11:36:35.621Z,33.20
2017-12-04T11:39:03.900Z,33.10
2017-12-04T11:41:32.318Z,33.20
2017-12-04T11:44:01.535Z,33.20
2017-12-04T11:46:29.845Z,33.10
2017-12-04T11:48:58.172Z,33.00
2017-12-04T11:51:26.410Z,33.10
2017-12-04T11:53:54.815Z,33.00
2017-12-04T11:56:23.136Z,33.00
2017-12-04T11:58:51.422Z,33.00
2017-12-04T12:01:19.879Z,33.00
2017-12-04T12:03:49.033Z,33.00
2017-12-04T12:06:17.373Z,33.00
2017-12-04T12:08:45.707Z,33.10
2017-12-04T12:11:14.745Z,33.10
2017-12-04T12:13:43.104Z,33.10
2017-12-04T12:16:11.484Z,33.10
2017-12-04T12:18:39.781Z,33.10
2017-12-04T12:21:08.061Z,33.00
2017-12-04T12:23:36.690Z,32.90
2017-12-04T12:26:05.784Z,33.00
2017-12-04T12:28:34.877Z,33.00
2017-12-04T12:31:03.966Z,33.00
2017-12-04T12:33:33.726Z,33.00
2017-12-04T12:36:02.197Z,32.90
2017-12-04T12:38:30.518Z,32.90
2017-12-04T12:40:58.821Z,32.80
2017-12-04T12:43:27.825Z,32.60
2017-12-04T12:45:56.078Z,32.60
2017-12-04T12:48:25.151Z,32.30
2017-12-04T12:50:53.693Z,32.30
2017-12-04T12:53:22.047Z,32.20
2017-12-04T12:55:50.429Z,32.40
2017-12-04T12:58:18.745Z,32.40
2017-12-04T13:00:46.973Z,32.30
2017-12-04T13:03:16.047Z,32.40
2017-12-04T13:05:44.310Z,32.40
2017-12-04T13:08:12.700Z,32.50
2017-12-04T13:10:40.931Z,32.30
2017-12-04T13:13:09.300Z,32.30
2017-12-04T13:15:37.615Z,32.30
2017-12-04T13:18:05.966Z,32.20
2017-12-04T13:20:34.296Z,33.00
2017-12-04T13:23:03.329Z,32.30
2017-12-04T13:25:31.619Z,32.30
2017-12-04T13:27:59.925Z,32.20
2017-12-04T13:30:29.056Z,32.10
2017-12-04T13:33:15.234Z,32.10
2017-12-04T13:38:54.659Z,32.10
2017-12-04T13:41:23.083Z,32.30
2017-12-04T13:43:51.419Z,32.30
2017-12-04T13:46:19.775Z,32.30
2017-12-04T13:48:48.130Z,32.20
2017-12-04T13:51:17.123Z,32.40
2017-12-04T13:53:45.486Z,32.40
2017-12-04T13:56:13.810Z,32.30
2017-12-04T13:58:42.137Z,32.30
2017-12-04T14:01:10.454Z,32.30
2017-12-04T14:03:38.746Z,32.40
2017-12-04T14:06:07.210Z,32.40
2017-12-04T14:08:35.585Z,32.40
2017-12-04T14:11:03.874Z,32.40
2017-12-04T14:13:32.280Z,32.40
2017-12-04T14:16:00.918Z,32.50
2017-12-04T14:18:29.334Z,32.50
2017-12-04T14:20:58.406Z,32.40
2017-12-04T14:23:26.876Z,32.40
2017-12-04T14:25:55.217Z,32.50
2017-12-04T14:28:23.563Z,32.50
2017-12-04T14:30:53.322Z,32.60
2017-12-04T14:33:21.953Z,32.60
2017-12-04T14:35:51.114Z,32.60
2017-12-04T14:38:19.515Z,32.60
2017-12-04T14:40:47.826Z,32.60
2017-12-04T14:43:16.188Z,32.60
2017-12-04T14:45:45.259Z,32.60
2017-12-04T14:48:13.517Z,32.60
2017-12-04T14:50:41.936Z,32.60
2017-12-04T14:53:11.230Z,32.60
2017-12-04T14:55:40.315Z,32.50
2017-12-04T14:58:09.355Z,32.60
2017-12-04T15:00:37.816Z,32.60
2017-12-04T15:03:06.154Z,32.60
2017-12-04T15:05:34.549Z,33.20
2017-12-04T15:10:38.074Z,32.50
2017-12-04T15:13:06.390Z,32.60
2017-12-04T15:15:35.143Z,32.50
2017-12-04T15:18:03.612Z,32.60
2017-12-04T15:20:35.186Z,32.60
2017-12-04T15:23:04.448Z,32.60
2017-12-04T15:25:32.811Z,32.60
2017-12-04T15:28:01.118Z,32.60
2017-12-04T15:30:30.218Z,32.50
2017-12-04T15:32:58.584Z,32.50
2017-12-04T15:35:27.671Z,32.50
2017-12-04T15:37:57.908Z,32.60
2017-12-04T15:40:26.976Z,32.60
2017-12-04T15:42:56.548Z,32.50
2017-12-04T15:45:24.898Z,32.50
2017-12-04T15:47:53.238Z,32.50
2017-12-04T15:50:21.584Z,32.40
2017-12-04T15:52:50.567Z,32.50
2017-12-04T15:55:18.889Z,32.50
2017-12-04T15:57:47.138Z,32.60
2017-12-04T16:00:15.528Z,32.70
2017-12-04T16:02:44.879Z,32.90
2017-12-04T16:05:13.334Z,33.00
2017-12-04T16:07:42.823Z,33.40
2017-12-04T16:10:12.020Z,33.50
2017-12-04T16:12:42.623Z,33.60
2017-12-04T16:15:10.994Z,33.50
2017-12-04T16:17:40.240Z,33.60
2017-12-04T16:20:09.295Z,34.30
2017-12-04T16:22:37.721Z,33.70
2017-12-04T16:25:06.037Z,33.70
2017-12-04T16:27:37.566Z,33.70
2017-12-04T16:30:06.739Z,33.90
2017-12-04T16:32:35.766Z,33.90
2017-12-04T16:35:04.240Z,33.90
2017-12-04T16:37:32.547Z,34.00
2017-12-04T16:40:00.823Z,34.00
2017-12-04T16:42:29.100Z,34.20
2017-12-04T16:44:57.410Z,34.20
2017-12-04T16:47:26.515Z,34.30
2017-12-04T16:49:54.790Z,34.30
2017-12-04T16:52:23.063Z,34.30
2017-12-04T16:54:52.124Z,34.40
2017-12-04T16:57:20.536Z,34.40
2017-12-04T16:59:49.576Z,34.50
2017-12-04T17:02:17.873Z,34.50
2017-12-04T17:04:46.173Z,34.50
2017-12-04T17:07:15.232Z,34.60
2017-12-04T17:09:44.412Z,34.60
2017-12-04T17:12:12.841Z,34.70
2017-12-04T17:14:41.908Z,34.80
2017-12-04T17:17:10.190Z,34.70
2017-12-04T17:19:39.003Z,34.80
2017-12-04T17:22:07.412Z,34.90
2017-12-04T17:24:35.692Z,34.80
2017-12-04T17:27:04.117Z,34.80
2017-12-04T17:29:32.443Z,34.90
2017-12-04T17:32:00.797Z,34.90
2017-12-04T17:34:29.089Z,34.90
2017-12-04T17:36:57.415Z,34.90
2017-12-04T17:39:25.716Z,35.00
2017-12-04T17:41:54.751Z,35.00
2017-12-04T17:44:23.032Z,34.90
2017-12-04T17:46:51.366Z,35.00
2017-12-04T17:49:19.687Z,35.00
2017-12-04T17:51:48.012Z,35.00
2017-12-04T17:54:17.093Z,35.10
2017-12-04T17:56:46.213Z,35.20
2017-12-04T17:59:14.551Z,35.10
2017-12-04T18:01:42.836Z,35.20
2017-12-04T18:04:11.327Z,34.70
2017-12-04T18:06:40.372Z,35.30
2017-12-04T18:09:08.785Z,35.30
2017-12-04T18:11:37.232Z,35.30
2017-12-04T18:14:05.520Z,35.30
2017-12-04T18:16:33.790Z,35.30
2017-12-04T18:19:02.132Z,35.30
2017-12-04T18:21:30.511Z,35.30
2017-12-04T18:23:58.871Z,35.30
2017-12-04T18:26:27.203Z,35.30
2017-12-04T18:28:56.781Z,35.40
2017-12-04T18:31:25.086Z,35.40
2017-12-04T18:33:53.420Z,35.40
2017-12-04T18:36:21.700Z,35.40
2017-12-04T18:38:50.088Z,35.60
2017-12-04T18:41:18.400Z,35.70
2017-12-04T18:43:46.712Z,35.80
2017-12-04T18:46:15.155Z,35.80
2017-12-04T18:48:43.516Z,35.80
2017-12-04T18:51:11.844Z,35.90
2017-12-04T18:53:41.032Z,35.90
2017-12-04T18:56:10.071Z,35.80
2017-12-04T18:58:38.437Z,35.70
2017-12-04T19:01:06.870Z,35.80
2017-12-04T19:03:36.497Z,35.80
2017-12-04T19:06:05.623Z,35.90
2017-12-04T19:08:33.959Z,35.80
2017-12-04T19:11:03.034Z,35.90
2017-12-04T19:13:31.376Z,35.80
2017-12-04T19:15:59.688Z,35.90
2017-12-04T19:18:28.965Z,35.80
2017-12-04T19:20:59.219Z,35.80
2017-12-04T19:23:27.564Z,35.80
2017-12-04T19:25:55.929Z,35.30
2017-12-04T19:28:24.378Z,35.80
2017-12-04T19:30:52.910Z,35.80
2017-12-04T19:33:21.242Z,35.80
2017-12-04T19:35:49.699Z,35.90
2017-12-04T19:38:18.745Z,35.90
2017-12-04T19:40:47.131Z,35.90
2017-12-04T19:43:15.544Z,36.00
2017-12-04T19:45:43.909Z,35.90
2017-12-04T19:48:13.160Z,35.90
2017-12-04T19:50:41.460Z,35.90
2017-12-04T19:53:09.755Z,36.00
2017-12-04T19:55:38.020Z,36.00
2017-12-04T19:58:06.372Z,36.00
2017-12-04T20:00:34.734Z,36.00
2017-12-04T20:03:03.469Z,36.00
2017-12-04T20:05:32.336Z,36.00
2017-12-04T20:08:00.645Z,36.10
2017-12-04T20:10:28.987Z,36.00
2017-12-04T20:12:57.323Z,36.10
2017-12-04T20:15:25.688Z,36.10
2017-12-04T20:17:54.754Z,36.10
2017-12-04T20:20:23.133Z,36.10
2017-12-04T20:22:51.399Z,36.20
2017-12-04T20:25:19.663Z,36.10
2017-12-04T20:27:47.941Z,36.20
2017-12-04T20:30:18.072Z,36.20
2017-12-04T20:32:49.643Z,36.20
2017-12-04T20:35:18.017Z,36.20
2017-12-04T20:37:46.394Z,36.30
2017-12-04T20:40:14.683Z,36.30
2017-12-04T20:42:43.771Z,36.40
2017-12-04T20:45:12.076Z,36.30
2017-12-04T20:47:40.419Z,36.60
2017-12-04T20:50:08.764Z,36.40
2017-12-04T20:52:37.144Z,36.40
2017-12-04T20:55:05.611Z,36.40
2017-12-04T20:57:33.903Z,36.40
2017-12-04T21:00:02.207Z,36.40
2017-12-04T21:02:30.562Z,36.40
2017-12-04T21:04:59.000Z,36.40
2017-12-04T21:07:27.338Z,36.50
2017-12-04T21:10:14.177Z,36.70
2017-12-04T21:12:43.235Z,36.70
2017-12-04T21:15:29.290Z,36.70
2017-12-04T21:17:57.645Z,36.80
2017-12-04T21:20:26.001Z,37.10
2017-12-04T21:22:55.036Z,37.20
2017-12-04T21:25:23.473Z,37.20
2017-12-04T21:27:52.650Z,37.30
2017-12-04T21:30:20.951Z,37.20
2017-12-04T21:32:49.981Z,37.40
2017-12-04T21:35:18.309Z,37.30
2017-12-04T21:37:46.620Z,37.40
2017-12-04T21:40:15.042Z,37.40
2017-12-04T21:42:44.361Z,37.50
2017-12-04T21:45:13.780Z,37.50
2017-12-04T21:47:42.857Z,37.50
2017-12-04T21:50:11.892Z,37.60
2017-12-04T21:52:40.230Z,37.60
2017-12-04T21:55:09.306Z,37.80
2017-12-04T21:57:37.700Z,37.70
2017-12-04T22:00:05.971Z,37.70
2017-12-04T22:02:34.271Z,37.90
2017-12-04T22:05:02.624Z,38.00
2017-12-04T22:07:31.720Z,38.30
2017-12-04T22:10:00.094Z,38.30
2017-12-04T22:12:28.372Z,38.40
2017-12-04T22:14:56.663Z,38.60
2017-12-04T22:17:25.047Z,38.90
2017-12-04T22:19:53.541Z,39.00
2017-12-04T22:22:22.640Z,39.40
2017-12-04T22:24:51.097Z,39.30
2017-12-04T22:27:20.365Z,39.60
2017-12-04T22:29:48.767Z,39.60
2017-12-04T22:32:17.816Z,39.70
2017-12-04T22:34:49.599Z,39.70
2017-12-04T22:37:18.112Z,39.70
2017-12-04T22:39:47.106Z,39.90
2017-12-04T22:42:17.389Z,40.00
2017-12-04T22:44:45.683Z,40.00
2017-12-04T22:47:14.011Z,40.00
2017-12-04T22:49:43.146Z,39.90
2017-12-04T22:52:11.618Z,40.00
2017-12-04T22:54:39.907Z,40.10
2017-12-04T22:57:08.165Z,40.10
2017-12-04T22:59:36.503Z,40.10
2017-12-04T23:02:09.231Z,40.30
2017-12-04T23:04:37.506Z,40.40
2017-12-04T23:07:05.917Z,40.40
2017-12-04T23:09:34.199Z,40.40
2017-12-04T23:12:02.475Z,40.60
2017-12-04T23:14:30.806Z,40.50
2017-12-04T23:16:59.048Z,40.70
2017-12-04T23:19:27.337Z,40.80
2017-12-04T23:21:55.588Z,41.30
2017-12-04T23:24:23.885Z,40.70
2017-12-04T23:26:52.126Z,40.90
2017-12-04T23:29:20.393Z,41.10
2017-12-04T23:31:48.680Z,41.10
2017-12-04T23:34:17.797Z,41.20
2017-12-04T23:36:46.178Z,41.20
2017-12-04T23:39:14.455Z,41.20
2017-12-04T23:41:42.704Z,41.40
2017-12-04T23:44:10.958Z,41.40
2017-12-04T23:46:40.795Z,41.50
2017-12-04T23:49:09.965Z,41.50
2017-12-04T23:51:38.279Z,41.50
2017-12-04T23:54:06.562Z,41.60
2017-12-04T23:56:34.835Z,42.10
2017-12-04T23:59:03.146Z,41.80
